This is the latest recevied weather packets stored in our database for station/object RUSSARO. If no packets are shown the sender has not sent any weather packets the latest 10 day(s).
| Time | Temp. | Humidity | Pressure | Rain* | Wind** | Luminosity | Snow |
|---|---|---|---|---|---|---|---|
| 1777711625 | 7.78° C | 76% | 1012.7 hPa | 0 mm | - | - | - |
| 1777710425 | 9.44° C | 70% | 1012.6 hPa | 0 mm | - | - | - |
| 1777709226 | 8.89° C | 70% | 1012.7 hPa | 0 mm | - | - | - |
| 1777708026 | 8.89° C | 71% | 1012.7 hPa | 0 mm | - | - | - |
| 1777706825 | 8.33° C | 74% | 1012.8 hPa | 0 mm | - | - | - |
| 1777705625 | 8.33° C | 74% | 1012.8 hPa | 0 mm | - | - | - |
| 1777704425 | 8.33° C | 76% | 1012.8 hPa | 0 mm | - | - | - |
| 1777703225 | 7.78° C | 75% | 1012.8 hPa | 0 mm | - | - | - |
| 1777702025 | 7.22° C | 77% | 1012.8 hPa | 0 mm | - | - | - |
| 1777700825 | 7.78° C | 78% | 1012.8 hPa | 0 mm | - | - | - |
| 1777699624 | 7.78° C | 78% | 1012.8 hPa | 0 mm | - | - | - |
| 1777698424 | 7.22° C | 80% | 1012.8 hPa | 0 mm | - | - | - |
| 1777697224 | 7.22° C | 79% | 1012.7 hPa | 0 mm | - | - | - |
| 1777696025 | 6.67° C | 81% | 1012.7 hPa | 0 mm | - | - | - |
| 1777694824 | 6.67° C | 83% | 1012.8 hPa | 0 mm | - | - | - |
| 1777693625 | 6.11° C | 84% | 1012.9 hPa | 0 mm | - | - | - |
| 1777692424 | 6.11° C | 85% | 1012.9 hPa | 0 mm | - | - | - |
| 1777691224 | 6.11° C | 84% | 1013.1 hPa | 0 mm | - | - | - |
| 1777690024 | 6.11° C | 85% | 1013.1 hPa | 0 mm | - | - | - |
| 1777688824 | 6.67° C | 82% | 1013.2 hPa | 0 mm | - | - | - |
| 1777687624 | 7.22° C | 79% | 1013.2 hPa | 0 mm | - | - | - |
| 1777686424 | 7.22° C | 80% | 1013.2 hPa | 0 mm | - | - | - |
| 1777685225 | 6.67° C | 84% | 1013.3 hPa | 0 mm | - | - | - |
| 1777684025 | 6.11° C | 85% | 1013.4 hPa | 0 mm | - | - | - |
| 1777682824 | 6.11° C | 86% | 1013.4 hPa | 0 mm | - | - | - |
* Rain latest hour (hover to see other rain measurements)
** Current wind speed in m/s (hover to see current wind gust speed)